Erwinville, LA

4:33 PM CDT on May 06, 2015 (GMT -0500)
Lafayette Regional | | Change Station
CLOSE
Current Station
Airport
Location: Lafayette,
Elevation: 39 ft
Nearby Weather Stations
Active Advisory: Flood Warning

Elev 39 ft 30.21 °N, 91.98 °W | Updated 40 minutes ago

Partly Cloudy
Partly Cloudy
82 °F
Feels Like 84 °F
N
10
Wind Variable Wind from South

Today
High -- | Low -- °F
--% Chance of Precip.
Yesterday
High -- | Low -- °F
Precip. -- in
6:17 AM 7:47 PM
Waning Gibbous, 92% visible
Pressure 30.00 in
Visibility 10.0 miles
Clouds Mostly Cloudy 4500 ft
Overcast 6500 ft
Heat Index 84 °F
Dew Point 65 °F
Humidity 56%
Rainfall 0.00 in
Snow Depth Not available.
UV 3 out of 12
Pollen 6.40 out of 12
Air Quality Not available.
Flu Activity Sporadic
METAR KLFT 062053Z AUTO 18009KT 10SM BKN045 OVC065 28/18 A3000 RMK AO2 SLP159 T02780183 56014

More Conditions Fewer Conditions

Pressure 30.00 in
Visibility 10.0 miles
Clouds Mostly Cloudy 4500 ft
Overcast 6500 ft
Heat Index 84 °F
Dew Point 65 °F
Humidity 56%
Rainfall 0.00 in
Snow Depth Not available.
UV 3 out of 12
Pollen 6.40 out of 12
Air Quality Not available.
Flu Activity Sporadic
METAR KLFT 062053Z AUTO 18009KT 10SM BKN045 OVC065 28/18 A3000 RMK AO2 SLP159 T02780183 56014

More Conditions Fewer Conditions

10-Day Weather Forecast

Almanac

Astronomy

May. 06, 2015 Rise Set
Actual Time
Civil Twilight
Nautical Twilight
Astronomical Twilight
Moon
Length of Visible Light
Length of Day
Tomorrow will be .
, % of the Moon is Illuminated

Today's Extremes

State Highs State Lows

Community

WunderPhotos

Upload Photos

1,819,022 photos uploaded!

WunderBlogs® & News

Nearby

Air Quality

  Air Quality AQ Index Pollutant
Not available.

Snow Depth

Station Depth Elevation

Earthquake Activity

City Distance Mag. Time & Date
Minimum magnitude displayed is 2.5.

Coastal Water Temperatures

Place Temperature

Stations

Nearby Weather Stations

Station Location Temp. Windchill Dew Point Humidity Wind Precip. Elev Updated Type
                   
Flood Warning
Statement as of 11:19 AM CDT on May 06, 2015

The Flood Warning continues for
the Mississippi River at Baton Rouge.
* Until this evening.
* At 10:00 am Wednesday the stage was 35.0 feet.
* Flood stage is 35.0 feet.
* Forecast... the river will continue to fall to below flood stage by
this afternoon.
* Impact... at 35.0 feet... river islands from Red River Landing
downstream to Baton Rouge will be inundated.


Lat... Lon 3074 9130 3071 9159 3032 9130 3035 9113